createdAt,value
2023-03-07T00:04:02.868Z,28.08
2023-03-07T00:09:01.342Z,27.70
2023-03-07T00:13:57.848Z,28.45
2023-03-07T00:18:54.970Z,27.05
2023-03-07T00:23:52.354Z,26.52
2023-03-07T00:28:51.029Z,24.13
2023-03-07T00:33:47.407Z,23.73
2023-03-07T00:38:44.488Z,24.75
2023-03-07T00:43:41.049Z,20.35
2023-03-07T00:48:39.487Z,20.77
2023-03-07T00:53:36.595Z,22.75
2023-03-07T00:58:35.844Z,22.75
2023-03-07T01:03:33.249Z,23.42
2023-03-07T01:08:30.492Z,21.67
2023-03-07T01:13:27.456Z,20.15
2023-03-07T01:18:23.827Z,19.85
2023-03-07T01:23:20.137Z,18.50
2023-03-07T01:28:16.455Z,21.33
2023-03-07T01:33:12.783Z,19.45
2023-03-07T01:38:09.125Z,15.95
2023-03-07T01:43:25.958Z,17.42
2023-03-07T01:48:22.584Z,21.83
2023-03-07T01:53:19.258Z,22.30
2023-03-07T01:58:15.679Z,22.20
2023-03-07T02:03:19.983Z,22.92
2023-03-07T02:08:17.131Z,21.25
2023-03-07T02:13:13.515Z,23.90
2023-03-07T02:18:14.203Z,23.05
2023-03-07T02:23:21.215Z,22.55
2023-03-07T02:28:19.341Z,22.70
2023-03-07T02:33:15.657Z,23.97
2023-03-07T02:38:12.159Z,25.60
2023-03-07T02:43:09.634Z,26.95
2023-03-07T02:48:06.266Z,29.30
2023-03-07T02:53:02.797Z,26.45
2023-03-07T02:57:59.475Z,31.83
2023-03-07T03:02:55.937Z,29.58
2023-03-07T03:07:52.505Z,29.88
2023-03-07T03:12:48.865Z,34.20
2023-03-07T03:17:45.174Z,32.25
2023-03-07T03:22:41.614Z,35.70
2023-03-07T03:27:38.417Z,32.58
2023-03-07T03:32:37.184Z,33.67
2023-03-07T03:37:33.839Z,29.10
2023-03-07T03:42:30.146Z,31.15
2023-03-07T03:47:26.494Z,31.05
2023-03-07T03:52:23.449Z,33.75
2023-03-07T03:57:20.659Z,34.33
2023-03-07T04:02:17.159Z,33.20
2023-03-07T04:07:13.531Z,36.00
2023-03-07T04:12:09.846Z,35.33
2023-03-07T04:17:06.148Z,34.88
2023-03-07T04:22:02.513Z,37.30
2023-03-07T04:26:58.830Z,39.47
2023-03-07T04:31:55.240Z,33.90
2023-03-07T04:36:51.636Z,39.17
2023-03-07T04:41:48.010Z,36.72
2023-03-07T04:46:44.349Z,39.60
2023-03-07T04:51:43.033Z,39.33
2023-03-07T04:56:40.250Z,38.08
2023-03-07T05:01:36.622Z,40.42
2023-03-07T05:06:32.942Z,35.55
2023-03-07T05:11:29.386Z,24.60
2023-03-07T05:16:25.681Z,15.65
2023-03-07T05:21:22.487Z,13.98
2023-03-07T05:26:18.902Z,10.55
2023-03-07T05:31:16.932Z,8.68
2023-03-07T05:36:14.466Z,7.57
2023-03-07T05:41:10.835Z,9.63
2023-03-07T05:46:07.236Z,9.27
2023-03-07T05:51:03.856Z,10.70
2023-03-07T05:56:00.255Z,12.27
2023-03-07T06:00:56.629Z,8.15
2023-03-07T06:05:53.005Z,8.65
2023-03-07T06:10:53.481Z,8.55
2023-03-07T06:15:53.917Z,10.90
2023-03-07T06:21:02.532Z,15.25
2023-03-07T06:25:59.980Z,12.73
2023-03-07T06:30:56.484Z,14.50
2023-03-07T06:35:52.899Z,14.93
2023-03-07T06:40:56.538Z,11.00
2023-03-07T06:45:53.562Z,10.85
2023-03-07T06:50:50.025Z,12.80
2023-03-07T06:55:51.017Z,9.68
2023-03-07T07:00:47.418Z,14.18
2023-03-07T07:05:43.836Z,11.35
2023-03-07T07:10:40.241Z,11.65
2023-03-07T07:15:36.618Z,15.05
2023-03-07T07:20:33.044Z,11.25
2023-03-07T07:25:29.401Z,15.27
2023-03-07T07:30:25.801Z,18.13
2023-03-07T07:35:22.465Z,20.38
2023-03-07T07:40:18.976Z,20.08
2023-03-07T07:45:15.390Z,19.05
2023-03-07T07:50:12.061Z,18.25
2023-03-07T07:55:10.219Z,21.52
2023-03-07T08:00:08.969Z,19.03
2023-03-07T08:05:10.368Z,27.98
2023-03-07T08:10:07.701Z,21.55
2023-03-07T08:15:04.401Z,23.45
2023-03-07T08:20:04.648Z,18.75
2023-03-07T08:25:01.008Z,12.27
2023-03-07T08:29:58.157Z,11.45
2023-03-07T08:34:54.547Z,9.18
2023-03-07T08:39:51.062Z,5.20
2023-03-07T08:44:47.462Z,7.43
2023-03-07T08:49:43.851Z,5.18
2023-03-07T08:54:40.290Z,5.97
2023-03-07T08:59:36.653Z,4.32
2023-03-07T09:04:33.149Z,9.82
2023-03-07T09:09:30.449Z,6.25
2023-03-07T09:14:26.961Z,5.68
2023-03-07T09:19:23.787Z,5.47
2023-03-07T09:24:20.229Z,4.57
2023-03-07T09:29:16.859Z,6.20
2023-03-07T09:34:16.207Z,9.07
2023-03-07T09:39:16.607Z,4.53
2023-03-07T09:44:34.360Z,5.32
2023-03-07T09:49:44.474Z,2.97
2023-03-07T09:54:53.422Z,3.40
2023-03-07T10:05:08.767Z,3.30
2023-03-07T10:10:12.115Z,6.00
2023-03-07T10:15:17.574Z,6.35
2023-03-07T10:20:20.434Z,4.75
2023-03-07T10:25:28.616Z,6.07
2023-03-07T10:30:25.063Z,5.10
2023-03-07T10:35:24.403Z,3.30
2023-03-07T10:40:31.717Z,3.22
2023-03-07T10:45:30.922Z,5.60
2023-03-07T10:50:36.429Z,2.92
2023-03-07T10:55:44.795Z,6.60
2023-03-07T11:00:44.334Z,6.07
2023-03-07T11:05:48.401Z,3.67
2023-03-07T11:10:44.871Z,4.88
2023-03-07T11:15:41.856Z,4.95
2023-03-07T11:20:51.201Z,6.65
2023-03-07T11:25:47.578Z,4.82
2023-03-07T11:30:51.192Z,3.75
2023-03-07T11:36:12.313Z,4.75
2023-03-07T11:41:23.700Z,4.18
2023-03-07T11:46:20.107Z,4.57
2023-03-07T11:51:54.356Z,6.03
2023-03-07T11:56:55.417Z,5.50
2023-03-07T12:02:02.344Z,6.55
2023-03-07T12:07:01.424Z,7.32
2023-03-07T12:12:03.037Z,5.80
2023-03-07T12:17:14.857Z,7.75
2023-03-07T12:22:35.304Z,3.45
2023-03-07T12:27:41.579Z,5.28
2023-03-07T12:32:38.594Z,3.72
2023-03-07T12:37:45.897Z,6.30
2023-03-07T12:42:51.026Z,6.88
2023-03-07T12:48:09.305Z,6.13
2023-03-07T12:53:16.407Z,9.13
2023-03-07T12:58:25.267Z,13.32
2023-03-07T13:08:26.100Z,5.82
2023-03-07T13:13:44.476Z,7.90
2023-03-07T13:18:40.934Z,12.85
2023-03-07T13:23:37.412Z,20.42
2023-03-07T13:28:44.957Z,17.33
2023-03-07T13:33:41.854Z,22.13
2023-03-07T13:38:44.596Z,17.20
2023-03-07T13:43:44.004Z,9.23
2023-03-07T13:48:40.322Z,10.38
2023-03-07T13:53:46.036Z,11.48
2023-03-07T13:58:57.757Z,12.82
2023-03-07T14:04:04.305Z,12.23
2023-03-07T14:09:05.095Z,13.48
2023-03-07T14:14:29.624Z,11.40
2023-03-07T14:19:42.131Z,8.63
2023-03-07T14:24:55.640Z,10.25
2023-03-07T14:29:54.491Z,7.45
2023-03-07T14:34:51.003Z,9.02
2023-03-07T14:39:59.545Z,8.50
2023-03-07T14:45:14.664Z,5.60
2023-03-07T14:50:23.408Z,6.07
2023-03-07T14:55:23.012Z,7.80
2023-03-07T15:00:29.610Z,6.38
2023-03-07T15:05:29.044Z,8.18
2023-03-07T15:10:40.705Z,5.72
2023-03-07T15:15:42.128Z,7.43
2023-03-07T15:20:39.061Z,5.95
2023-03-07T15:25:38.698Z,7.38
2023-03-07T15:30:38.073Z,12.40
2023-03-07T15:35:34.478Z,8.15
2023-03-07T15:40:33.512Z,9.38
2023-03-07T15:45:31.655Z,1.73
2023-03-07T15:50:29.691Z,1.33
2023-03-07T15:55:27.028Z,2.23
2023-03-07T16:00:43.779Z,7.43
2023-03-07T16:05:40.880Z,3.38
2023-03-07T16:10:38.511Z,1.85
2023-03-07T16:15:34.915Z,1.33
2023-03-07T16:20:31.346Z,7.45
2023-03-07T16:25:30.765Z,3.47
2023-03-07T16:30:28.939Z,3.03
2023-03-07T16:35:28.047Z,7.43
2023-03-07T16:40:26.137Z,3.80
2023-03-07T16:45:25.707Z,5.17
2023-03-07T16:50:26.021Z,3.72
2023-03-07T16:55:23.338Z,10.25
2023-03-07T17:00:25.175Z,11.55
2023-03-07T17:05:27.179Z,6.13
2023-03-07T17:10:26.465Z,9.60
2023-03-07T17:15:30.195Z,4.80
2023-03-07T17:20:27.640Z,3.53
2023-03-07T17:25:24.890Z,8.23
2023-03-07T17:30:27.034Z,5.35
2023-03-07T17:35:23.685Z,5.43
2023-03-07T17:40:21.285Z,5.35
2023-03-07T17:45:18.355Z,4.32
2023-03-07T17:50:14.744Z,3.53
2023-03-07T17:55:11.530Z,4.57
2023-03-07T18:00:13.167Z,8.40
2023-03-07T18:05:10.540Z,10.60
2023-03-07T18:10:08.986Z,8.95
2023-03-07T18:15:08.131Z,7.50
2023-03-07T18:20:06.459Z,13.32
2023-03-07T18:25:04.478Z,6.75
2023-03-07T18:30:01.192Z,9.10
2023-03-07T18:34:57.570Z,7.40
2023-03-07T18:39:54.230Z,5.93
2023-03-07T18:44:50.620Z,10.52
2023-03-07T18:49:49.331Z,7.63
2023-03-07T18:54:48.231Z,8.60
2023-03-07T19:04:41.054Z,10.20
2023-03-07T19:09:37.451Z,11.25
2023-03-07T19:14:33.857Z,9.65
2023-03-07T19:19:30.228Z,9.35
2023-03-07T19:24:26.530Z,8.15
2023-03-07T19:29:22.980Z,6.85
2023-03-07T19:34:19.272Z,10.45
2023-03-07T19:39:20.319Z,10.85
2023-03-07T19:44:17.538Z,8.88
2023-03-07T19:49:17.094Z,9.90
2023-03-07T19:54:14.477Z,9.73
2023-03-07T19:59:12.023Z,8.00
2023-03-07T20:04:11.386Z,6.18
2023-03-07T20:09:09.381Z,9.80
2023-03-07T20:14:05.751Z,6.73
2023-03-07T20:19:05.269Z,12.68
2023-03-07T20:24:02.017Z,10.02
2023-03-07T20:28:59.247Z,9.38
2023-03-07T20:33:58.631Z,12.85
2023-03-07T20:38:57.893Z,13.15
2023-03-07T20:44:03.726Z,19.17
2023-03-07T20:49:01.993Z,13.90
2023-03-07T20:54:00.737Z,10.43
2023-03-07T20:58:58.202Z,18.17
2023-03-07T21:03:55.131Z,15.80
2023-03-07T21:08:52.172Z,18.85
2023-03-07T21:13:49.189Z,15.85
2023-03-07T21:18:46.191Z,17.83
2023-03-07T21:23:42.909Z,21.23
2023-03-07T21:28:39.766Z,18.35
2023-03-07T21:33:36.157Z,18.60
2023-03-07T21:38:33.882Z,17.33
2023-03-07T21:43:30.279Z,15.60
2023-03-07T21:48:26.647Z,19.23
2023-03-07T21:53:23.690Z,19.13
2023-03-07T21:58:21.520Z,17.40
2023-03-07T22:03:18.908Z,16.60
2023-03-07T22:08:17.175Z,16.02
2023-03-07T22:13:13.804Z,11.95
2023-03-07T22:18:10.118Z,18.85
2023-03-07T22:23:06.742Z,14.50
2023-03-07T22:28:03.151Z,16.08
2023-03-07T22:33:00.228Z,21.48
2023-03-07T22:37:56.596Z,18.92
2023-03-07T22:42:52.974Z,21.40
2023-03-07T22:47:49.473Z,19.88
2023-03-07T22:52:45.846Z,23.88
2023-03-07T22:57:42.163Z,25.55
2023-03-07T23:02:38.462Z,26.35
2023-03-07T23:07:35.053Z,26.15
2023-03-07T23:12:31.444Z,29.27
2023-03-07T23:17:27.782Z,31.60
2023-03-07T23:22:24.182Z,35.33
2023-03-07T23:27:20.487Z,34.20
2023-03-07T23:32:16.878Z,29.90
2023-03-07T23:37:13.322Z,34.75
2023-03-07T23:42:11.976Z,34.83
2023-03-07T23:47:08.337Z,32.78
2023-03-07T23:52:04.852Z,32.58
2023-03-07T23:57:01.144Z,31.13
